Time;durP1;ratioP1;P1;durP2;ratioP2;P2;SDS_P1;SDS_P2;PMS_P1;PMS_P2;Temp;Humidity;BMP_temperature;BMP_pressure;BME280_temperature;BME280_humidity;BME280_pressure;Samples;Min_cycle;Max_cycle;Signal;HPM_P1;HPM_P2
2022/10/22 00:00:58;;;;;;;9.27;6.57;;;;;;;-148.88;100.00;75306.00;5095054;28;20047;-72
2022/10/22 00:03:23;;;;;;;9.70;7.28;;;;;;;-148.88;100.00;75320.22;5095042;28;20046;-72
2022/10/22 00:05:49;;;;;;;12.27;6.65;;;;;;;-148.88;100.00;75330.38;5095191;28;20059;-73
2022/10/22 00:08:14;;;;;;;9.38;7.25;;;;;;;-148.88;100.00;75326.31;5094844;28;20020;-72
2022/10/22 00:10:40;;;;;;;10.98;7.60;;;;;;;-148.88;100.00;75328.34;5094527;28;20036;-72
2022/10/22 00:13:06;;;;;;;11.57;7.53;;;;;;;-148.88;100.00;75330.38;5094835;28;20028;-73
2022/10/22 00:15:31;;;;;;;11.43;8.13;;;;;;;-148.88;100.00;75338.50;5094894;28;20140;-72
2022/10/22 00:17:57;;;;;;;9.77;7.60;;;;;;;-148.88;100.00;75342.56;5094777;28;20028;-73
2022/10/22 00:20:22;;;;;;;10.25;7.22;;;;;;;-148.88;100.00;75346.63;5094669;28;20032;-73
2022/10/22 00:22:48;;;;;;;9.38;7.07;;;;;;;-148.88;100.00;75356.78;5094673;28;20069;-73
2022/10/22 00:25:13;;;;;;;9.88;6.57;;;;;;;-148.88;100.00;75354.75;5094582;28;20051;-73
2022/10/22 00:27:38;;;;;;;9.38;6.35;;;;;;;-148.88;100.00;75356.78;5094589;28;20055;-73
2022/10/22 00:30:04;;;;;;;8.70;6.28;;;;;;;-148.88;100.00;75356.78;5094384;28;20111;-72
2022/10/22 00:32:29;;;;;;;7.93;6.88;;;;;;;-148.88;100.00;75350.69;5093082;28;20055;-73
2022/10/22 00:34:55;;;;;;;9.27;6.50;;;;;;;-148.88;100.00;75358.81;5093129;28;20028;-73
2022/10/22 00:37:20;;;;;;;11.95;6.40;;;;;;;-148.88;100.00;75371.00;5094330;28;20052;-73
2022/10/22 00:39:45;;;;;;;8.45;6.38;;;;;;;-148.88;100.00;75366.94;5093017;28;20115;-73
2022/10/22 00:42:18;;;;;;;10.75;6.50;;;;;;;-148.88;100.00;75377.09;5094201;28;20448;-72
2022/10/22 00:45:01;;;;;;;8.35;6.90;;;;;;;-148.88;100.00;75371.00;5094267;28;20043;-72
2022/10/22 00:47:41;;;;;;;10.65;6.38;;;;;;;-148.88;100.00;75366.94;5094202;28;20478;-72
2022/10/22 00:50:13;;;;;;;10.60;6.47;;;;;;;-148.88;100.00;75362.88;5094076;28;20032;-72
2022/10/22 00:52:39;;;;;;;10.40;6.15;;;;;;;-148.88;100.00;75366.94;5094149;28;20020;-72
2022/10/22 00:55:05;;;;;;;8.88;6.30;;;;;;;-148.88;100.00;75379.13;5094020;28;20432;-72
2022/10/22 00:57:33;;;;;;;10.65;6.55;;;;;;;-148.88;100.00;75362.88;5094045;28;20551;-72
2022/10/22 00:59:59;;;;;;;8.80;6.07;;;;;;;-148.88;100.00;75360.84;5094054;28;20024;-71
2022/10/22 01:02:25;;;;;;;12.27;7.22;;;;;;;-148.88;100.00;75350.69;5093802;28;20047;-73
2022/10/22 01:04:50;;;;;;;8.68;7.13;;;;;;;-148.88;100.00;75350.69;5094096;28;20154;-72
2022/10/22 01:07:19;;;;;;;10.65;6.95;;;;;;;-148.88;100.00;75346.63;5093712;28;20027;-72
2022/10/22 01:10:02;;;;;;;11.60;7.30;;;;;;;-148.88;100.00;75346.63;5092476;28;20028;-72
2022/10/22 01:13:16;;;;;;;8.02;6.15;;;;;;;-148.88;100.00;75350.69;5093540;28;20020;-73
2022/10/22 01:15:55;;;;;;;12.15;7.10;;;;;;;-148.88;100.00;75354.75;5074328;28;20406;-72
2022/10/22 01:18:30;;;;;;;9.05;6.40;;;;;;;-148.88;100.00;75354.75;5093638;28;20047;-72
2022/10/22 01:21:17;;;;;;;9.25;5.80;;;;;;;-148.88;100.00;75358.81;5092907;28;20030;-72
2022/10/22 01:24:01;;;;;;;7.50;5.93;;;;;;;-148.88;100.00;75362.88;5093754;28;20028;-72
2022/10/22 01:26:32;;;;;;;;;;;;;;;-148.88;100.00;75358.81;5093861;28;20031;-72
2022/10/22 01:29:11;;;;;;;10.70;5.72;;;;;;;-148.88;100.00;75356.78;5093380;28;19912;-72
2022/10/22 01:31:45;;;;;;;8.68;6.20;;;;;;;-148.88;100.00;75366.94;5093334;28;20019;-72
2022/10/22 01:34:15;;;;;;;7.85;6.03;;;;;;;-148.88;100.00;75366.94;5093334;28;20020;-72
2022/10/22 01:36:41;;;;;;;9.13;5.88;;;;;;;-148.88;100.00;75371.00;5093310;28;20095;-72
2022/10/22 01:39:07;;;;;;;10.25;6.10;;;;;;;-148.88;100.00;75368.97;5093216;28;20497;-72
2022/10/22 01:41:33;;;;;;;10.30;5.43;;;;;;;-148.88;100.00;75371.00;5093135;28;20111;-72
2022/10/22 01:43:58;;;;;;;7.03;5.43;;;;;;;-148.88;100.00;75368.97;5093142;28;20052;-72
2022/10/22 01:46:27;;;;;;;8.18;5.68;;;;;;;-148.88;100.00;75373.03;5093091;28;20024;-72
2022/10/22 01:49:28;;;;;;;10.15;6.38;;;;;;;-148.88;100.00;75375.06;5093037;28;20085;-72
2022/10/22 01:52:28;;;;;;;8.20;5.82;;;;;;;-148.88;100.00;75379.13;5092934;28;20020;-72
2022/10/22 01:55:30;;;;;;;7.40;5.60;;;;;;;-148.88;100.00;75379.13;5093085;28;20089;-72
2022/10/22 01:58:07;;;;;;;11.50;5.32;;;;;;;-148.88;100.00;75379.13;5092578;28;20038;-72
2022/10/22 02:00:38;;;;;;;6.13;5.25;;;;;;;-148.88;100.00;75381.16;5092870;28;20024;-72
2022/10/22 02:03:12;;;;;;;7.28;5.38;;;;;;;-148.88;100.00;75391.31;5091654;28;20019;-72
2022/10/22 02:05:58;;;;;;;6.63;5.35;;;;;;;-148.88;100.00;75395.38;5093105;28;20020;-72
2022/10/22 02:08:28;;;;;;;9.65;6.00;;;;;;;-148.88;100.00;75395.38;5091619;28;20028;-72
2022/10/22 02:10:56;;;;;;;8.30;5.78;;;;;;;-148.88;100.00;75395.38;5091982;28;20013;-72
2022/10/22 02:13:36;;;;;;;7.68;6.00;;;;;;;-148.88;100.00;75399.44;5092766;28;20111;-72
2022/10/22 02:16:05;;;;;;;7.32;6.20;;;;;;;-148.88;100.00;75403.50;5091494;28;20508;-72
2022/10/22 02:18:34;;;;;;;8.43;6.22;;;;;;;-148.88;100.00;75407.56;5092807;28;20028;-72
2022/10/22 02:21:00;;;;;;;9.85;6.50;;;;;;;-148.88;100.00;75403.50;5092586;28;20016;-72
2022/10/22 02:23:26;;;;;;;9.02;6.40;;;;;;;-148.88;100.00;75407.56;5092663;28;20016;-72
2022/10/22 02:25:58;;;;;;;7.03;5.90;;;;;;;-148.88;100.00;75403.50;5092696;28;20438;-72
2022/10/22 02:28:28;;;;;;;8.70;5.75;;;;;;;-148.88;100.00;75407.56;5092638;28;20385;-72
2022/10/22 02:30:59;;;;;;;9.30;5.72;;;;;;;-148.88;100.00;75411.63;5091105;28;20020;-72
2022/10/22 02:33:28;;;;;;;11.05;7.07;;;;;;;-148.88;100.00;75421.78;5094793;28;20027;-72
2022/10/22 02:35:55;;;;;;;10.48;6.38;;;;;;;-148.88;100.00;75427.88;5096899;28;20023;-72
2022/10/22 02:38:23;;;;;;;11.05;8.57;;;;;;;-148.88;100.00;75438.03;5096657;28;20016;-72
2022/10/22 02:40:49;;;;;;;14.15;9.15;;;;;;;-148.88;100.00;75436.00;5096498;28;20024;-72
2022/10/22 02:43:16;;;;;;;13.23;9.45;;;;;;;-148.88;100.00;75454.28;5096461;28;20024;-72
2022/10/22 02:45:42;;;;;;;9.85;8.85;;;;;;;-148.88;100.00;75454.28;5096540;28;20020;-72
2022/10/22 02:48:07;;;;;;;9.40;7.60;;;;;;;-148.88;100.00;75456.31;5096509;28;20028;-72
2022/10/22 02:50:32;;;;;;;11.38;8.27;;;;;;;-148.88;100.00;75474.59;5096223;28;20150;-72
2022/10/22 02:52:58;;;;;;;11.82;8.82;;;;;;;-148.88;100.00;75472.56;5096661;28;20024;-72
2022/10/22 02:55:23;;;;;;;10.60;8.35;;;;;;;-148.88;100.00;75462.41;5096624;28;20016;-72
2022/10/22 02:57:48;;;;;;;14.60;8.82;;;;;;;-148.88;100.00;75474.59;5096359;28;20398;-72
2022/10/22 03:00:14;;;;;;;11.25;8.48;;;;;;;-148.88;100.00;75476.63;5096172;28;20106;-72
2022/10/22 03:02:40;;;;;;;13.60;8.35;;;;;;;-148.88;100.00;75464.44;5094881;28;20016;-72
2022/10/22 03:05:06;;;;;;;10.25;8.80;;;;;;;-148.88;100.00;75470.53;5096193;28;20088;-72
2022/10/22 03:07:31;;;;;;;13.43;9.60;;;;;;;-148.88;100.00;75476.63;5096085;28;20028;-72
2022/10/22 03:09:57;;;;;;;11.65;9.48;;;;;;;-148.88;100.00;75476.63;5096040;28;20060;-72
2022/10/22 03:12:22;;;;;;;12.60;9.85;;;;;;;-148.88;100.00;75476.63;5095681;28;20024;-72
2022/10/22 03:14:48;;;;;;;12.32;9.55;;;;;;;-148.88;100.00;75484.75;5095973;28;20039;-72
2022/10/22 03:17:14;;;;;;;12.48;10.00;;;;;;;-148.88;100.00;75480.69;5095978;28;20436;-72
2022/10/22 03:19:40;;;;;;;13.65;10.43;;;;;;;-148.88;100.00;75486.78;5095884;28;20479;-72
2022/10/22 03:22:13;;;;;;;12.38;10.18;;;;;;;-148.88;100.00;75484.75;5095789;28;20019;-72
2022/10/22 03:24:43;;;;;;;12.23;9.73;;;;;;;-148.88;100.00;75484.75;5096188;28;20020;-72
2022/10/22 03:27:11;;;;;;;14.10;9.23;;;;;;;-148.88;100.00;75488.81;5055918;22;20040;-83
2022/10/22 03:29:39;;;;;;;13.90;9.95;;;;;;;-148.88;100.00;75480.69;5055146;28;20175;-83
2022/10/22 03:32:04;;;;;;;15.63;9.95;;;;;;;-148.88;100.00;75488.81;5039691;28;20017;-84
2022/10/22 03:34:30;;;;;;;12.65;10.52;;;;;;;-148.88;100.00;75492.88;5037764;28;20037;-84
2022/10/22 03:36:59;;;;;;;11.43;9.55;;;;;;;-148.88;100.00;75505.06;5052155;28;20048;-85
2022/10/22 03:39:26;;;;;;;12.82;9.68;;;;;;;-148.88;100.00;75492.88;5057124;28;20060;-84
2022/10/22 03:41:52;;;;;;;11.20;9.68;;;;;;;-148.88;100.00;75492.88;5057034;28;20052;-84
2022/10/22 03:44:19;;;;;;;11.77;10.30;;;;;;;-148.88;100.00;75496.94;5056628;28;20031;-85
2022/10/22 03:46:45;;;;;;;17.05;9.45;;;;;;;-148.88;100.00;75492.88;5057604;28;20090;-83
2022/10/22 03:49:10;;;;;;;11.80;8.70;;;;;;;-148.88;100.00;75492.88;5057132;28;20021;-83
2022/10/22 03:51:35;;;;;;;15.68;9.13;;;;;;;-148.88;100.00;75498.97;5056243;28;20049;-84
2022/10/22 03:54:02;;;;;;;11.32;8.43;;;;;;;-148.88;100.00;75501.00;5055599;28;20510;-83
2022/10/22 03:56:28;;;;;;;12.68;8.35;;;;;;;-148.88;100.00;75486.78;5056350;28;20036;-83
2022/10/22 03:58:56;;;;;;;13.52;8.50;;;;;;;-148.88;100.00;75484.75;5055783;28;20033;-83
2022/10/22 04:01:22;;;;;;;10.80;8.05;;;;;;;-148.88;100.00;75492.88;5057743;28;20017;-82
2022/10/22 04:03:48;;;;;;;14.18;7.60;;;;;;;-148.88;100.00;75488.81;5056614;28;20052;-83
2022/10/22 04:06:13;;;;;;;12.23;7.78;;;;;;;-148.88;100.00;75478.66;5057131;28;20040;-83
2022/10/22 04:08:40;;;;;;;11.85;7.57;;;;;;;-148.88;100.00;75476.63;5056023;28;20074;-84
2022/10/22 04:11:06;;;;;;;10.93;7.47;;;;;;;-148.88;100.00;75472.56;5055341;28;20017;-83
2022/10/22 04:13:31;;;;;;;11.00;7.28;;;;;;;-148.88;100.00;75464.44;5056647;28;20203;-83
2022/10/22 04:16:19;;;;;;;12.07;7.30;;;;;;;-148.88;100.00;75460.38;5055799;28;20021;-83
2022/10/22 04:18:45;;;;;;;12.93;7.90;;;;;;;-148.88;100.00;75460.38;5055752;28;20135;-83
2022/10/22 04:21:13;;;;;;;11.95;7.57;;;;;;;-148.88;100.00;75460.38;5056569;28;20043;-84
2022/10/22 04:23:42;;;;;;;11.65;7.50;;;;;;;-148.88;100.00;75456.31;5055431;28;20036;-83
2022/10/22 04:26:08;;;;;;;11.68;7.63;;;;;;;-148.88;100.00;75464.44;5055772;28;20060;-84
2022/10/22 04:28:34;;;;;;;8.13;6.93;;;;;;;-148.88;100.00;75472.56;5055017;28;20102;-83
2022/10/22 04:30:59;;;;;;;9.27;6.80;;;;;;;-148.88;100.00;75470.53;5056124;28;20100;-83
2022/10/22 04:33:24;;;;;;;12.13;6.60;;;;;;;-148.88;100.00;75460.38;5054132;28;20032;-84
2022/10/22 04:35:50;;;;;;;10.75;6.78;;;;;;;-148.88;100.00;75460.38;5055334;28;20550;-84
2022/10/22 04:38:15;;;;;;;11.50;6.47;;;;;;;-148.88;100.00;75464.44;5053857;28;20025;-83
2022/10/22 04:40:43;;;;;;;9.63;6.35;;;;;;;-148.88;100.00;75466.47;5053952;28;20025;-84
2022/10/22 04:43:08;;;;;;;11.23;6.38;;;;;;;-148.88;100.00;75464.44;5055529;28;20363;-83
2022/10/22 04:45:35;;;;;;;9.65;6.35;;;;;;;-148.88;100.00;75464.44;5053826;28;20017;-83
2022/10/22 04:48:00;;;;;;;13.98;6.28;;;;;;;-148.88;100.00;75474.59;5054502;28;20032;-83
2022/10/22 04:50:26;;;;;;;13.05;6.28;;;;;;;-148.88;100.00;75476.63;5054951;28;20028;-83
2022/10/22 04:52:51;;;;;;;10.07;6.25;;;;;;;-148.88;100.00;75472.56;5053983;28;20021;-85
2022/10/22 04:55:17;;;;;;;11.02;6.30;;;;;;;-148.88;100.00;75474.59;5052838;28;20112;-83
2022/10/22 04:57:42;;;;;;;11.23;6.47;;;;;;;-148.88;100.00;75476.63;5055531;28;20024;-83
2022/10/22 05:00:08;;;;;;;11.43;6.90;;;;;;;-148.88;100.00;75480.69;5054612;28;20025;-84
2022/10/22 05:02:33;;;;;;;13.70;6.47;;;;;;;-148.88;100.00;75488.81;5054871;28;20098;-86
2022/10/22 05:04:58;;;;;;;11.32;7.07;;;;;;;-148.88;100.00;75492.88;5053547;28;20024;-83
2022/10/22 05:07:34;;;;;;;9.80;6.60;;;;;;;-148.88;100.00;75501.00;5055408;28;20032;-83
2022/10/22 05:10:01;;;;;;;12.15;6.55;;;;;;;-148.88;100.00;75494.91;5053943;28;20056;-85
2022/10/22 05:12:28;;;;;;;11.63;6.03;;;;;;;-148.88;100.00;75494.91;5052982;28;20016;-84
2022/10/22 05:14:54;;;;;;;12.45;6.45;;;;;;;-148.88;100.00;75501.00;5052950;28;20033;-87
2022/10/22 05:17:20;;;;;;;7.95;6.07;;;;;;;-148.88;100.00;75496.94;5052746;28;20021;-83
2022/10/22 05:19:45;;;;;;;7.18;5.82;;;;;;;-148.88;100.00;75496.94;5053897;28;20086;-83
2022/10/22 05:22:10;;;;;;;9.07;7.07;;;;;;;-148.88;100.00;75511.16;5052254;28;20394;-84
2022/10/22 05:24:36;;;;;;;13.98;6.93;;;;;;;-148.88;100.00;75511.16;5052370;28;20391;-84
2022/10/22 05:27:02;;;;;;;12.88;6.53;;;;;;;-148.88;100.00;75521.31;5052149;28;20039;-85
2022/10/22 05:29:27;;;;;;;11.80;6.80;;;;;;;-148.88;100.00;75521.31;5053500;28;20398;-85
2022/10/22 05:31:53;;;;;;;8.52;6.40;;;;;;;-148.88;100.00;75525.38;5054390;28;20024;-83
2022/10/22 05:34:28;;;;;;;9.35;6.88;;;;;;;-148.88;100.00;75535.53;5053555;28;20037;-84
2022/10/22 05:36:53;;;;;;;12.77;7.07;;;;;;;-148.88;100.00;75535.53;5052883;28;20433;-85
2022/10/22 05:39:18;;;;;;;9.80;6.95;;;;;;;-148.88;100.00;75537.56;5052744;28;20549;-85
2022/10/22 05:41:44;;;;;;;8.52;6.45;;;;;;;-148.88;100.00;75541.63;5052258;28;20029;-85
2022/10/22 05:44:10;;;;;;;10.10;6.57;;;;;;;-148.88;100.00;75539.59;5054097;28;20048;-84
2022/10/22 05:46:36;;;;;;;8.10;6.22;;;;;;;-148.88;100.00;75553.81;5054010;28;20029;-83
2022/10/22 05:49:03;;;;;;;8.57;5.97;;;;;;;-148.88;100.00;75553.81;5053575;28;20108;-83
2022/10/22 05:51:31;;;;;;;9.30;6.32;;;;;;;-148.88;100.00;75570.03;5052885;28;20020;-84
2022/10/22 05:54:00;;;;;;;8.23;6.53;;;;;;;-148.88;100.00;75570.03;5054241;28;20028;-84
2022/10/22 05:56:28;;;;;;;11.30;6.93;;;;;;;-148.88;100.00;75568.03;5052506;28;20031;-89
2022/10/22 05:58:54;;;;;;;11.80;7.53;;;;;;;-148.88;100.00;75574.13;5053239;28;20485;-89
2022/10/22 06:01:26;;;;;;;10.75;7.03;;;;;;;-148.88;100.00;75584.25;5052199;28;20039;-86
2022/10/22 06:03:57;;;;;;;11.80;7.53;;;;;;;-148.88;100.00;75584.25;5052989;28;20454;-86
2022/10/22 06:06:36;;;;;;;11.05;7.65;;;;;;;-148.88;100.00;75590.34;5052958;28;20044;-86
2022/10/22 06:09:16;;;;;;;11.88;7.97;;;;;;;-148.88;100.00;75594.44;5053113;28;20079;-84
2022/10/22 06:11:41;;;;;;;13.27;8.13;;;;;;;-148.88;100.00;75602.53;5052804;28;20017;-86
2022/10/22 06:14:07;;;;;;;11.23;9.07;;;;;;;-148.88;100.00;75600.50;5053507;28;20029;-87
2022/10/22 06:16:33;;;;;;;11.73;8.40;;;;;;;-148.88;100.00;75594.44;5052175;28;20017;-85
2022/10/22 06:19:02;;;;;;;9.50;8.50;;;;;;;-148.88;100.00;75606.59;5053696;28;20025;-86
2022/10/22 06:21:28;;;;;;;14.55;9.43;;;;;;;-148.88;100.00;75614.72;5052551;28;20028;-86
2022/10/22 06:23:58;;;;;;;13.75;9.27;;;;;;;-148.88;100.00;75639.09;5052473;28;20029;-85
2022/10/22 06:26:24;;;;;;;11.93;9.20;;;;;;;-148.88;100.00;75639.09;5052128;28;20063;-85
2022/10/22 06:28:50;;;;;;;16.25;9.80;;;;;;;-148.88;100.00;75635.03;5052335;28;20021;-85
2022/10/22 06:31:15;;;;;;;13.18;10.23;;;;;;;-148.88;100.00;75647.22;5052201;28;20112;-85
2022/10/22 06:33:42;;;;;;;11.88;9.73;;;;;;;-148.88;100.00;75651.28;5053554;28;20036;-85
2022/10/22 06:36:07;;;;;;;14.50;10.25;;;;;;;-148.88;100.00;75651.28;5052151;28;20491;-85
2022/10/22 06:38:42;;;;;;;13.73;10.60;;;;;;;-148.88;100.00;75651.28;5052355;28;20035;-86
2022/10/22 06:41:10;;;;;;;14.18;10.77;;;;;;;-148.88;100.00;75657.38;5052954;28;20467;-84
2022/10/22 06:43:35;;;;;;;19.50;11.65;;;;;;;-148.88;100.00;75663.47;5051856;28;20078;-86
2022/10/22 06:46:03;;;;;;;14.85;11.60;;;;;;;-148.88;100.00;75657.38;5052102;28;20029;-87
2022/10/22 06:48:29;;;;;;;13.20;10.93;;;;;;;-148.88;100.00;75651.28;5051611;28;20112;-84
2022/10/22 06:50:55;;;;;;;16.15;10.98;;;;;;;-148.88;100.00;75653.31;5051472;28;20025;-90
2022/10/22 06:53:20;;;;;;;15.27;10.80;;;;;;;-148.88;100.00;75643.16;5051698;28;20025;-86
2022/10/22 06:55:46;;;;;;;15.40;10.30;;;;;;;-148.88;100.00;75643.16;5052145;28;20053;-87
2022/10/22 06:58:11;;;;;;;13.60;9.80;;;;;;;-148.88;100.00;75637.06;5053875;28;20040;-87
2022/10/22 07:00:36;;;;;;;19.67;10.40;;;;;;;-148.88;100.00;75628.94;5052059;28;20021;-85
2022/10/22 07:03:01;;;;;;;14.60;10.23;;;;;;;-148.88;100.00;75622.84;5051945;28;20021;-85
2022/10/22 07:05:27;;;;;;;14.27;10.23;;;;;;;-148.88;100.00;75622.84;5051602;28;20451;-89
2022/10/22 07:07:52;;;;;;;13.90;9.75;;;;;;;-148.88;100.00;75618.78;5051583;28;20024;-85
2022/10/22 07:10:17;;;;;;;13.88;9.93;;;;;;;-148.88;100.00;75610.66;5051490;28;20029;-87
2022/10/22 07:12:43;;;;;;;11.35;8.65;;;;;;;-148.88;100.00;75602.53;5051405;28;20052;-86
2022/10/22 07:15:09;;;;;;;15.30;9.15;;;;;;;-148.88;100.00;75602.53;5052444;28;20099;-87
2022/10/22 07:17:34;;;;;;;10.88;8.80;;;;;;;-148.88;100.00;75606.59;5052106;28;20024;-89
2022/10/22 07:19:59;;;;;;;11.70;9.18;;;;;;;-148.88;100.00;75604.56;5055323;28;20029;-85
2022/10/22 07:22:24;;;;;;;12.75;9.27;;;;;;;-148.88;100.00;75598.47;5056428;28;20479;-84
2022/10/22 07:24:50;;;;;;;13.23;9.50;;;;;;;-148.88;100.00;75592.38;5055799;28;20119;-84
2022/10/22 07:27:15;;;;;;;11.95;8.77;;;;;;;-148.88;100.00;75590.34;5055849;28;20426;-82
2022/10/22 07:29:40;;;;;;;15.95;8.85;;;;;;;-148.88;100.00;75586.31;5057762;28;20036;-83
2022/10/22 07:32:06;;;;;;;13.75;8.50;;;;;;;-148.88;100.00;75574.13;5057030;28;20021;-83
2022/10/22 07:34:31;;;;;;;11.43;8.27;;;;;;;-148.88;100.00;75570.03;5057818;28;20029;-83
2022/10/22 07:36:57;;;;;;;13.57;7.60;;;;;;;-148.88;100.00;75559.91;5057386;28;20410;-86
2022/10/22 07:39:24;;;;;;;12.73;7.43;;;;;;;-148.88;100.00;75553.81;5056252;28;20368;-83
2022/10/22 07:41:50;;;;;;;10.93;7.75;;;;;;;-148.88;100.00;75549.75;5055831;28;20031;-84
2022/10/22 07:44:15;;;;;;;11.65;7.57;;;;;;;-148.88;100.00;75543.66;5056018;28;20029;-83
2022/10/22 07:46:40;;;;;;;9.50;7.57;;;;;;;-148.88;100.00;75529.44;5056406;28;20372;-86
2022/10/22 07:49:06;;;;;;;11.68;7.13;;;;;;;-148.88;100.00;75517.25;5054876;28;20027;-84
2022/10/22 07:51:31;;;;;;;14.95;6.97;;;;;;;-148.88;100.00;75496.94;5054543;28;20074;-85
2022/10/22 07:53:56;;;;;;;10.70;7.30;;;;;;;-148.88;100.00;75484.75;5055845;28;20054;-86
2022/10/22 07:56:22;;;;;;;12.70;7.40;;;;;;;-148.88;100.00;75468.50;5055302;28;20032;-84
2022/10/22 07:58:47;;;;;;;14.20;7.28;;;;;;;-148.88;100.00;75460.38;5055047;28;20064;-82
2022/10/22 08:01:12;;;;;;;11.52;6.95;;;;;;;-148.88;100.00;75448.19;5056529;28;20036;-82
2022/10/22 08:03:38;;;;;;;14.02;6.72;;;;;;;-148.88;100.00;75431.94;5055645;28;20070;-82
2022/10/22 08:06:03;;;;;;;12.15;7.00;;;;;;;-148.88;100.00;75429.91;5055844;28;20052;-82
2022/10/22 08:08:29;;;;;;;10.80;6.70;;;;;;;-148.88;100.00;75423.81;5055122;28;20025;-83
2022/10/22 08:10:56;;;;;;;11.95;6.72;;;;;;;-148.88;100.00;75417.72;5054734;28;20024;-83
2022/10/22 08:13:22;;;;;;;16.83;6.20;;;;;;;-148.88;100.00;75413.66;5054518;28;20460;-82
2022/10/22 08:15:47;;;;;;;12.68;6.32;;;;;;;-148.88;100.00;75407.56;5054021;28;20092;-85
2022/10/22 08:18:13;;;;;;;12.55;6.47;;;;;;;-148.88;100.00;75395.38;5054601;28;20029;-83
2022/10/22 08:20:38;;;;;;;12.48;6.55;;;;;;;-148.88;100.00;75383.19;5056275;28;20466;-85
2022/10/22 08:23:04;;;;;;;10.40;7.22;;;;;;;-148.88;100.00;75373.03;5057684;28;20017;-82
2022/10/22 08:25:33;;;;;;;15.55;7.97;;;;;;;-148.88;100.00;75334.44;5055813;28;20517;-81
2022/10/22 08:27:58;;;;;;;16.27;7.97;;;;;;;-148.88;100.00;75303.97;5055913;28;20075;-83
2022/10/22 08:30:26;;;;;;;11.88;7.88;;;;;;;-148.88;100.00;75289.75;5057307;28;20025;-84
2022/10/22 08:32:52;;;;;;;10.73;6.30;;;;;;;-148.88;100.00;75265.41;5056715;28;20021;-83
2022/10/22 08:35:25;;;;;;;9.57;5.80;;;;;;;-148.88;100.00;75253.22;5056836;28;20394;-81
2022/10/22 08:37:56;;;;;;;9.68;6.43;;;;;;;-148.88;100.00;75232.91;5054483;28;20560;-85
2022/10/22 08:40:29;;;;;;;13.43;5.90;;;;;;;-148.88;100.00;75192.28;5054734;28;20169;-84
2022/10/22 08:43:09;;;;;;;9.95;5.40;;;;;;;-148.88;100.00;75169.94;5053525;28;20382;-85
2022/10/22 08:45:46;;;;;;;11.45;5.57;;;;;;;-148.88;100.00;75143.53;5055323;28;20021;-81
2022/10/22 08:48:33;;;;;;;8.75;5.03;;;;;;;-148.88;100.00;75131.34;5055479;28;20029;-84
2022/10/22 08:50:58;;;;;;;9.05;4.93;;;;;;;-148.88;100.00;75106.97;5053523;28;20494;-84
2022/10/22 08:53:44;;;;;;;7.47;4.57;;;;;;;-148.88;100.00;75100.88;5054115;28;20039;-84
2022/10/22 08:56:09;;;;;;;9.57;4.35;;;;;;;-148.88;100.00;75094.81;5054349;28;20058;-83
2022/10/22 08:58:38;;;;;;;10.77;5.25;;;;;;;-148.88;100.00;75082.63;5054503;28;20555;-82
2022/10/22 09:01:42;;;;;;;8.85;4.40;;;;;;;-148.88;100.00;75078.56;5055336;28;20032;-83
2022/10/22 09:04:28;;;;;;;8.15;4.43;;;;;;;-148.88;100.00;75076.53;5010891;28;20033;-81
2022/10/22 09:06:56;;;;;;;7.72;4.18;;;;;;;-148.88;100.00;75076.53;5053068;28;20403;-83
2022/10/22 09:09:31;;;;;;;11.75;4.45;;;;;;;-148.88;100.00;75058.25;5054532;28;20593;-83
2022/10/22 09:11:58;;;;;;;11.95;4.50;;;;;;;-148.88;100.00;75031.84;5055066;28;20363;-83
2022/10/22 09:14:25;;;;;;;6.85;3.88;;;;;;;-148.88;100.00;75029.81;5054953;28;20021;-84
2022/10/22 09:17:15;;;;;;;10.15;4.10;;;;;;;-148.88;100.00;75025.75;5054575;28;20033;-82
2022/10/22 09:20:01;;;;;;;8.55;4.03;;;;;;;-148.88;100.00;75023.72;5053280;28;20021;-81
2022/10/22 09:22:49;;;;;;;9.95;4.25;;;;;;;-148.88;100.00;75033.88;5054472;28;20020;-83
2022/10/22 09:25:26;;;;;;;6.75;3.72;;;;;;;-148.88;100.00;75037.94;5056255;28;20029;-83
2022/10/22 09:27:57;;;;;;;9.60;3.88;;;;;;;-148.88;100.00;75031.84;5053360;28;20487;-83
2022/10/22 09:30:25;;;;;;;9.15;4.55;;;;;;;-148.88;100.00;75021.69;5053813;28;20083;-85
2022/10/22 09:33:08;;;;;;;12.07;4.70;;;;;;;-148.88;99.21;75029.81;5057013;28;20384;-83
2022/10/22 09:35:43;;;;;;;9.45;4.03;;;;;;;-148.88;99.76;75037.94;5055395;28;20025;-82
2022/10/22 09:38:12;;;;;;;12.80;4.72;;;;;;;-148.88;98.73;75021.69;5053917;28;20040;-84
2022/10/22 09:40:47;;;;;;;10.43;4.32;;;;;;;-148.88;99.30;75029.81;5054183;28;20025;-83
2022/10/22 09:43:13;;;;;;;9.98;4.55;;;;;;;-148.88;99.34;75027.78;5052971;28;20368;-84
2022/10/22 09:45:40;;;;;;;11.35;4.13;;;;;;;-148.88;99.62;75017.63;5053727;28;20028;-83
2022/10/22 09:48:17;;;;;;;8.35;4.57;;;;;;;-148.88;99.13;75013.56;5054045;28;20029;-83
2022/10/22 09:50:54;;;;;;;9.52;4.20;;;;;;;-148.88;98.38;75011.53;5052594;28;20108;-84
2022/10/22 09:53:29;;;;;;;9.43;4.00;;;;;;;-148.88;95.99;75009.50;5053340;28;20023;-84
2022/10/22 09:55:58;;;;;;;10.10;4.82;;;;;;;-148.88;97.56;75001.38;5054452;28;20120;-83
2022/10/22 09:58:24;;;;;;;9.85;4.55;;;;;;;-148.88;96.41;74997.31;5054738;28;20108;-84
2022/10/22 10:00:57;;;;;;;9.45;3.72;;;;;;;-148.88;94.24;74997.31;5053715;28;20059;-85
2022/10/22 10:03:26;;;;;;;7.97;4.07;;;;;;;-148.88;95.11;74987.16;5054045;28;20024;-82
2022/10/22 10:05:56;;;;;;;10.27;4.30;;;;;;;-148.88;95.13;74981.06;5054108;28;20033;-83
2022/10/22 10:08:22;;;;;;;8.93;3.72;;;;;;;-148.88;94.75;74956.69;5055930;28;20494;-83
2022/10/22 10:10:55;;;;;;;9.80;4.45;;;;;;;-148.88;93.06;74952.63;5055097;28;20029;-83
2022/10/22 10:13:41;;;;;;;12.23;3.78;;;;;;;-148.88;92.18;74960.75;5054521;28;20137;-82
2022/10/22 10:16:44;;;;;;;8.68;3.72;;;;;;;-148.88;91.95;74956.69;5059567;28;20033;-82
2022/10/22 10:19:26;;;;;;;12.13;4.22;;;;;;;-148.88;91.76;74970.91;5057105;28;20024;-84
2022/10/22 10:22:22;;;;;;;9.95;4.18;;;;;;;-148.88;91.89;74993.25;5054167;28;20426;-82
2022/10/22 10:25:07;;;;;;;8.50;4.40;;;;;;;-148.88;91.13;75009.50;5057817;28;20039;-82
2022/10/22 10:27:56;;;;;;;12.02;3.50;;;;;;;-148.88;90.11;75052.16;5057824;28;20020;-83
2022/10/22 10:30:22;;;;;;;7.70;3.60;;;;;;;-148.88;90.88;75042.00;5055998;28;20367;-84
2022/10/22 10:33:04;;;;;;;9.77;3.55;;;;;;;-148.88;89.38;75029.81;5054548;28;20025;-85
2022/10/22 10:35:42;;;;;;;6.70;2.85;;;;;;;-148.88;88.39;75011.53;5052209;28;20040;-83
2022/10/22 10:38:22;;;;;;;8.38;2.60;;;;;;;-148.88;87.30;74991.22;5052555;28;20029;-85
2022/10/22 10:41:09;;;;;;;10.20;3.15;;;;;;;-148.88;88.14;74966.84;5052162;28;20135;-83
2022/10/22 10:43:54;;;;;;;10.38;2.88;;;;;;;-148.88;87.70;74979.03;5055422;28;20027;-82
2022/10/22 10:46:34;;;;;;;9.20;3.03;;;;;;;-148.88;86.33;75001.38;5054295;28;20438;-82
2022/10/22 10:49:07;;;;;;;8.43;2.55;;;;;;;-148.88;87.53;75042.00;5053783;28;20477;-84
2022/10/22 10:51:33;;;;;;;7.95;2.60;;;;;;;-148.88;88.06;75037.94;5053935;28;20383;-84
2022/10/22 10:54:01;;;;;;;7.22;3.03;;;;;;;-148.88;86.91;74981.06;5053955;28;20029;-83
2022/10/22 10:56:29;;;;;;;9.52;2.97;;;;;;;-148.88;87.25;74999.34;5057105;28;20380;-83
2022/10/22 10:59:12;;;;;;;9.45;3.05;;;;;;;-148.88;88.85;75019.66;5058203;28;20063;-83
2022/10/22 11:01:46;;;;;;;7.25;3.22;;;;;;;-148.88;88.76;75021.69;5057361;28;20021;-83
2022/10/22 11:07:38;;;;;;;12.80;5.32;;;;;;;-148.88;88.76;75048.09;5082035;22;20418;-72
2022/10/22 11:10:23;;;;;;;7.85;3.65;;;;;;;-148.88;87.00;75017.63;5076105;28;20028;-73
2022/10/22 11:12:51;;;;;;;7.93;2.88;;;;;;;-148.88;85.53;74983.09;5055998;28;20497;-73
2022/10/22 11:15:31;;;;;;;10.07;3.30;;;;;;;-148.88;85.71;74968.88;5055940;28;20029;-72
2022/10/22 11:18:06;;;;;;;10.48;3.13;;;;;;;-148.88;83.84;74968.88;5054668;28;20028;-73
2022/10/22 11:20:48;;;;;;;5.15;2.78;;;;;;;-148.88;84.41;74962.78;5054944;28;20079;-72